sensor_id;sensor_type;location;lat;lon;timestamp;temperature;humidity
30534;DHT22;17318;52.390;9.754;2023-04-01T00:00:20;12.20;99.90
30534;DHT22;17318;52.390;9.754;2023-04-01T00:02:46;12.30;99.90
30534;DHT22;17318;52.390;9.754;2023-04-01T00:05:13;12.20;99.90
30534;DHT22;17318;52.390;9.754;2023-04-01T00:07:39;12.30;99.90
30534;DHT22;17318;52.390;9.754;2023-04-01T00:10:07;12.30;99.90
30534;DHT22;17318;52.390;9.754;2023-04-01T00:12:33;12.20;99.90
30534;DHT22;17318;52.390;9.754;2023-04-01T00:14:59;12.20;99.90
30534;DHT22;17318;52.390;9.754;2023-04-01T00:17:25;12.20;99.90
30534;DHT22;17318;52.390;9.754;2023-04-01T00:19:50;12.20;99.90
30534;DHT22;17318;52.390;9.754;2023-04-01T00:22:16;12.30;99.90
30534;DHT22;17318;52.390;9.754;2023-04-01T00:24:42;12.20;99.90
30534;DHT22;17318;52.390;9.754;2023-04-01T00:27:07;12.30;99.90
30534;DHT22;17318;52.390;9.754;2023-04-01T00:29:34;12.20;99.90
30534;DHT22;17318;52.390;9.754;2023-04-01T00:32:00;12.30;99.90
30534;DHT22;17318;52.390;9.754;2023-04-01T00:34:26;12.20;99.90
30534;DHT22;17318;52.390;9.754;2023-04-01T00:36:52;12.20;99.90
30534;DHT22;17318;52.390;9.754;2023-04-01T00:39:18;12.10;99.90
30534;DHT22;17318;52.390;9.754;2023-04-01T00:41:44;12.30;99.90
30534;DHT22;17318;52.390;9.754;2023-04-01T00:44:22;12.20;99.90
30534;DHT22;17318;52.390;9.754;2023-04-01T00:46:48;12.20;99.90
30534;DHT22;17318;52.390;9.754;2023-04-01T00:49:16;12.20;99.90
30534;DHT22;17318;52.390;9.754;2023-04-01T00:51:44;12.30;99.90
30534;DHT22;17318;52.390;9.754;2023-04-01T00:54:12;12.10;99.90
30534;DHT22;17318;52.390;9.754;2023-04-01T00:56:45;12.10;99.90
30534;DHT22;17318;52.390;9.754;2023-04-01T00:59:18;12.10;99.90
30534;DHT22;17318;52.390;9.754;2023-04-01T01:01:45;12.10;99.90
30534;DHT22;17318;52.390;9.754;2023-04-01T01:04:28;12.10;99.90
30534;DHT22;17318;52.390;9.754;2023-04-01T01:12:58;12.10;99.90
30534;DHT22;17318;52.390;9.754;2023-04-01T01:15:44;12.00;99.90
30534;DHT22;17318;52.390;9.754;2023-04-01T01:18:48;12.00;99.90
30534;DHT22;17318;52.390;9.754;2023-04-01T01:27:17;12.00;99.90
30534;DHT22;17318;52.390;9.754;2023-04-01T01:29:59;12.00;99.90
30534;DHT22;17318;52.390;9.754;2023-04-01T01:37:47;12.00;99.90
30534;DHT22;17318;52.390;9.754;2023-04-01T01:40:15;12.00;99.90
30534;DHT22;17318;52.390;9.754;2023-04-01T01:42:46;12.00;99.90
30534;DHT22;17318;52.390;9.754;2023-04-01T01:45:15;12.00;99.90
30534;DHT22;17318;52.390;9.754;2023-04-01T01:47:43;12.00;99.90
30534;DHT22;17318;52.390;9.754;2023-04-01T01:50:12;11.90;99.90
30534;DHT22;17318;52.390;9.754;2023-04-01T01:52:38;12.00;99.90
30534;DHT22;17318;52.390;9.754;2023-04-01T01:55:24;12.00;99.90
30534;DHT22;17318;52.390;9.754;2023-04-01T01:57:51;12.00;99.90
30534;DHT22;17318;52.390;9.754;2023-04-01T02:00:18;12.00;99.90
30534;DHT22;17318;52.390;9.754;2023-04-01T02:02:46;12.00;99.90
30534;DHT22;17318;52.390;9.754;2023-04-01T02:05:20;12.00;99.90
30534;DHT22;17318;52.390;9.754;2023-04-01T02:07:52;12.10;99.90
30534;DHT22;17318;52.390;9.754;2023-04-01T02:10:22;12.00;99.90
30534;DHT22;17318;52.390;9.754;2023-04-01T02:12:51;12.00;99.90
30534;DHT22;17318;52.390;9.754;2023-04-01T02:15:20;12.00;99.90
30534;DHT22;17318;52.390;9.754;2023-04-01T02:17:47;12.10;99.90
30534;DHT22;17318;52.390;9.754;2023-04-01T02:20:15;12.10;99.90
30534;DHT22;17318;52.390;9.754;2023-04-01T02:22:46;12.10;99.90
30534;DHT22;17318;52.390;9.754;2023-04-01T02:25:16;12.10;99.90
30534;DHT22;17318;52.390;9.754;2023-04-01T02:27:44;12.00;99.90
30534;DHT22;17318;52.390;9.754;2023-04-01T02:30:11;12.00;99.90
30534;DHT22;17318;52.390;9.754;2023-04-01T02:32:38;12.00;99.90
30534;DHT22;17318;52.390;9.754;2023-04-01T02:35:15;12.00;99.90
30534;DHT22;17318;52.390;9.754;2023-04-01T02:37:43;11.90;99.90
30534;DHT22;17318;52.390;9.754;2023-04-01T02:40:12;11.90;99.90
30534;DHT22;17318;52.390;9.754;2023-04-01T02:42:38;11.90;99.90
30534;DHT22;17318;52.390;9.754;2023-04-01T02:45:05;12.00;99.90
30534;DHT22;17318;52.390;9.754;2023-04-01T02:47:30;12.00;99.90
30534;DHT22;17318;52.390;9.754;2023-04-01T02:49:57;11.90;99.90
30534;DHT22;17318;52.390;9.754;2023-04-01T02:52:26;11.90;99.90
30534;DHT22;17318;52.390;9.754;2023-04-01T02:54:52;12.00;99.90
30534;DHT22;17318;52.390;9.754;2023-04-01T02:57:17;11.90;99.90
30534;DHT22;17318;52.390;9.754;2023-04-01T02:59:43;12.00;99.90
30534;DHT22;17318;52.390;9.754;2023-04-01T03:02:09;12.00;99.90
30534;DHT22;17318;52.390;9.754;2023-04-01T03:04:35;12.00;99.90
30534;DHT22;17318;52.390;9.754;2023-04-01T03:07:00;12.00;99.90
30534;DHT22;17318;52.390;9.754;2023-04-01T03:09:27;12.00;99.90
30534;DHT22;17318;52.390;9.754;2023-04-01T03:11:54;11.90;99.90
30534;DHT22;17318;52.390;9.754;2023-04-01T03:14:20;11.90;99.90
30534;DHT22;17318;52.390;9.754;2023-04-01T03:16:45;11.90;99.90
30534;DHT22;17318;52.390;9.754;2023-04-01T03:19:11;11.90;99.90
30534;DHT22;17318;52.390;9.754;2023-04-01T03:21:37;11.90;99.90
30534;DHT22;17318;52.390;9.754;2023-04-01T03:24:02;11.90;99.90
30534;DHT22;17318;52.390;9.754;2023-04-01T03:26:28;11.90;99.90
30534;DHT22;17318;52.390;9.754;2023-04-01T03:28:54;11.90;99.90
30534;DHT22;17318;52.390;9.754;2023-04-01T03:31:21;12.00;99.90
30534;DHT22;17318;52.390;9.754;2023-04-01T03:33:47;11.90;99.90
30534;DHT22;17318;52.390;9.754;2023-04-01T03:36:12;12.00;99.90
30534;DHT22;17318;52.390;9.754;2023-04-01T03:38:40;11.90;99.90
30534;DHT22;17318;52.390;9.754;2023-04-01T03:41:06;11.90;99.90
30534;DHT22;17318;52.390;9.754;2023-04-01T03:43:32;12.00;99.90
30534;DHT22;17318;52.390;9.754;2023-04-01T03:45:58;12.00;99.90
30534;DHT22;17318;52.390;9.754;2023-04-01T03:48:24;12.00;99.90
30534;DHT22;17318;52.390;9.754;2023-04-01T03:50:51;12.10;99.90
30534;DHT22;17318;52.390;9.754;2023-04-01T03:53:17;12.00;99.90
30534;DHT22;17318;52.390;9.754;2023-04-01T03:55:42;12.10;99.90
30534;DHT22;17318;52.390;9.754;2023-04-01T03:58:09;11.90;99.90
30534;DHT22;17318;52.390;9.754;2023-04-01T04:00:35;11.90;99.90
30534;DHT22;17318;52.390;9.754;2023-04-01T04:03:01;11.90;99.90
30534;DHT22;17318;52.390;9.754;2023-04-01T04:05:27;12.00;99.90
30534;DHT22;17318;52.390;9.754;2023-04-01T04:07:53;11.80;99.90
30534;DHT22;17318;52.390;9.754;2023-04-01T04:10:19;11.90;99.90
30534;DHT22;17318;52.390;9.754;2023-04-01T04:12:45;11.90;99.90
30534;DHT22;17318;52.390;9.754;2023-04-01T04:15:12;11.90;99.90
30534;DHT22;17318;52.390;9.754;2023-04-01T04:17:38;11.90;99.90
30534;DHT22;17318;52.390;9.754;2023-04-01T04:20:04;11.80;99.90
30534;DHT22;17318;52.390;9.754;2023-04-01T04:22:30;11.80;99.90
30534;DHT22;17318;52.390;9.754;2023-04-01T04:24:55;11.80;99.90
30534;DHT22;17318;52.390;9.754;2023-04-01T04:27:21;11.80;99.90
30534;DHT22;17318;52.390;9.754;2023-04-01T04:29:46;11.80;99.90
30534;DHT22;17318;52.390;9.754;2023-04-01T04:32:12;11.70;99.90
30534;DHT22;17318;52.390;9.754;2023-04-01T04:34:38;11.80;99.90
30534;DHT22;17318;52.390;9.754;2023-04-01T04:37:04;11.80;99.90
30534;DHT22;17318;52.390;9.754;2023-04-01T04:39:29;11.90;99.90
30534;DHT22;17318;52.390;9.754;2023-04-01T04:41:55;11.80;99.90
30534;DHT22;17318;52.390;9.754;2023-04-01T04:44:21;11.80;99.90
30534;DHT22;17318;52.390;9.754;2023-04-01T04:46:46;11.80;99.90
30534;DHT22;17318;52.390;9.754;2023-04-01T04:49:12;11.80;99.90
30534;DHT22;17318;52.390;9.754;2023-04-01T04:51:38;11.80;99.90
30534;DHT22;17318;52.390;9.754;2023-04-01T04:54:05;11.70;99.90
30534;DHT22;17318;52.390;9.754;2023-04-01T04:56:31;11.80;99.90
30534;DHT22;17318;52.390;9.754;2023-04-01T04:58:58;11.80;99.90
30534;DHT22;17318;52.390;9.754;2023-04-01T05:01:24;11.70;99.90
30534;DHT22;17318;52.390;9.754;2023-04-01T05:03:50;11.70;99.90
30534;DHT22;17318;52.390;9.754;2023-04-01T05:06:17;11.70;99.90
30534;DHT22;17318;52.390;9.754;2023-04-01T05:08:44;11.80;99.90
30534;DHT22;17318;52.390;9.754;2023-04-01T05:11:14;11.70;99.90
30534;DHT22;17318;52.390;9.754;2023-04-01T05:13:40;11.70;99.90
30534;DHT22;17318;52.390;9.754;2023-04-01T05:16:15;11.70;99.90
30534;DHT22;17318;52.390;9.754;2023-04-01T05:18:40;11.70;99.90
30534;DHT22;17318;52.390;9.754;2023-04-01T05:21:11;11.60;99.90
30534;DHT22;17318;52.390;9.754;2023-04-01T05:23:38;11.60;99.90
30534;DHT22;17318;52.390;9.754;2023-04-01T05:26:09;11.60;99.90
30534;DHT22;17318;52.390;9.754;2023-04-01T05:28:36;11.60;99.90
30534;DHT22;17318;52.390;9.754;2023-04-01T05:31:02;11.70;99.90
30534;DHT22;17318;52.390;9.754;2023-04-01T05:33:50;11.60;99.90
30534;DHT22;17318;52.390;9.754;2023-04-01T05:36:16;11.50;99.90
30534;DHT22;17318;52.390;9.754;2023-04-01T05:38:42;11.50;99.90
30534;DHT22;17318;52.390;9.754;2023-04-01T05:41:08;11.70;99.90
30534;DHT22;17318;52.390;9.754;2023-04-01T05:43:38;11.60;99.90
30534;DHT22;17318;52.390;9.754;2023-04-01T05:46:04;11.60;99.90
30534;DHT22;17318;52.390;9.754;2023-04-01T05:48:29;11.50;99.90
30534;DHT22;17318;52.390;9.754;2023-04-01T05:50:55;11.60;99.90
30534;DHT22;17318;52.390;9.754;2023-04-01T05:53:21;11.60;99.90
30534;DHT22;17318;52.390;9.754;2023-04-01T05:55:47;11.60;99.90
30534;DHT22;17318;52.390;9.754;2023-04-01T05:58:13;11.70;99.90
30534;DHT22;17318;52.390;9.754;2023-04-01T06:00:39;11.70;99.90
30534;DHT22;17318;52.390;9.754;2023-04-01T06:03:05;11.70;99.90
30534;DHT22;17318;52.390;9.754;2023-04-01T06:05:39;11.70;99.90
30534;DHT22;17318;52.390;9.754;2023-04-01T06:08:13;11.70;99.90
30534;DHT22;17318;52.390;9.754;2023-04-01T06:10:58;11.70;99.90
30534;DHT22;17318;52.390;9.754;2023-04-01T06:19:22;11.80;99.90
30534;DHT22;17318;52.390;9.754;2023-04-01T06:24:53;11.80;99.90
30534;DHT22;17318;52.390;9.754;2023-04-01T06:30:30;12.10;99.90
30534;DHT22;17318;52.390;9.754;2023-04-01T06:40:56;12.10;99.90
30534;DHT22;17318;52.390;9.754;2023-04-01T06:43:57;12.10;99.90
30534;DHT22;17318;52.390;9.754;2023-04-01T06:49:02;12.30;99.90
30534;DHT22;17318;52.390;9.754;2023-04-01T06:54:39;12.40;99.90
30534;DHT22;17318;52.390;9.754;2023-04-01T06:57:20;12.40;99.90
30534;DHT22;17318;52.390;9.754;2023-04-01T06:59:47;12.40;99.90
30534;DHT22;17318;52.390;9.754;2023-04-01T07:04:47;12.50;99.90
30534;DHT22;17318;52.390;9.754;2023-04-01T07:09:43;12.50;99.90
30534;DHT22;17318;52.390;9.754;2023-04-01T07:14:59;12.80;99.90
30534;DHT22;17318;52.390;9.754;2023-04-01T07:17:35;12.60;99.90
30534;DHT22;17318;52.390;9.754;2023-04-01T07:20:10;12.70;99.90
30534;DHT22;17318;52.390;9.754;2023-04-01T07:22:50;12.70;99.90
30534;DHT22;17318;52.390;9.754;2023-04-01T07:25:29;12.70;99.90
30534;DHT22;17318;52.390;9.754;2023-04-01T07:28:15;12.60;99.90
30534;DHT22;17318;52.390;9.754;2023-04-01T07:36:20;12.50;99.90
30534;DHT22;17318;52.390;9.754;2023-04-01T07:44:37;12.50;99.90
30534;DHT22;17318;52.390;9.754;2023-04-01T07:47:56;12.60;99.90
30534;DHT22;17318;52.390;9.754;2023-04-01T07:50:26;12.60;99.90
30534;DHT22;17318;52.390;9.754;2023-04-01T07:56:11;12.70;99.90
30534;DHT22;17318;52.390;9.754;2023-04-01T07:58:53;12.80;99.90
30534;DHT22;17318;52.390;9.754;2023-04-01T08:01:43;12.80;99.90
30534;DHT22;17318;52.390;9.754;2023-04-01T08:15:27;13.30;99.90
30534;DHT22;17318;52.390;9.754;2023-04-01T08:18:08;13.50;99.90
30534;DHT22;17318;52.390;9.754;2023-04-01T08:23:24;13.80;99.90
30534;DHT22;17318;52.390;9.754;2023-04-01T08:26:32;14.00;99.90
30534;DHT22;17318;52.390;9.754;2023-04-01T08:29:11;14.20;99.90
30534;DHT22;17318;52.390;9.754;2023-04-01T08:34:16;15.00;99.90
30534;DHT22;17318;52.390;9.754;2023-04-01T08:36:47;15.50;99.90
30534;DHT22;17318;52.390;9.754;2023-04-01T08:39:30;15.90;99.90
30534;DHT22;17318;52.390;9.754;2023-04-01T08:45:39;16.30;99.40
30534;DHT22;17318;52.390;9.754;2023-04-01T08:48:23;16.10;99.50
30534;DHT22;17318;52.390;9.754;2023-04-01T08:56:14;15.70;99.90
30534;DHT22;17318;52.390;9.754;2023-04-01T08:58:49;15.70;99.90
30534;DHT22;17318;52.390;9.754;2023-04-01T09:01:46;15.50;99.90
30534;DHT22;17318;52.390;9.754;2023-04-01T09:04:31;15.60;99.90
30534;DHT22;17318;52.390;9.754;2023-04-01T09:07:38;15.50;99.90
30534;DHT22;17318;52.390;9.754;2023-04-01T09:13:31;15.50;99.90
30534;DHT22;17318;52.390;9.754;2023-04-01T09:18:46;15.60;99.90
30534;DHT22;17318;52.390;9.754;2023-04-01T09:21:31;15.50;99.90
30534;DHT22;17318;52.390;9.754;2023-04-01T09:32:26;15.40;98.90
30534;DHT22;17318;52.390;9.754;2023-04-01T09:38:17;15.30;98.80
30534;DHT22;17318;52.390;9.754;2023-04-01T09:54:03;15.20;99.40
30534;DHT22;17318;52.390;9.754;2023-04-01T10:11:27;14.80;99.60
30534;DHT22;17318;52.390;9.754;2023-04-01T10:16:57;14.70;99.90
30534;DHT22;17318;52.390;9.754;2023-04-01T11:01:47;14.10;99.90
30534;DHT22;17318;52.390;9.754;2023-04-01T11:31:35;14.60;99.90
30534;DHT22;17318;52.390;9.754;2023-04-01T11:44:20;14.60;99.90
30534;DHT22;17318;52.390;9.754;2023-04-01T11:47:19;14.70;99.90
30534;DHT22;17318;52.390;9.754;2023-04-01T11:49:56;14.70;99.90
30534;DHT22;17318;52.390;9.754;2023-04-01T11:55:39;14.70;99.90
30534;DHT22;17318;52.390;9.754;2023-04-01T12:03:54;14.70;99.90
30534;DHT22;17318;52.390;9.754;2023-04-01T12:06:49;14.80;99.90
30534;DHT22;17318;52.390;9.754;2023-04-01T12:14:57;15.10;99.90
30534;DHT22;17318;52.390;9.754;2023-04-01T12:20:53;15.10;99.90
30534;DHT22;17318;52.390;9.754;2023-04-01T12:23:44;15.40;99.90
30534;DHT22;17318;52.390;9.754;2023-04-01T12:26:32;15.50;99.90
30534;DHT22;17318;52.390;9.754;2023-04-01T12:29:09;15.50;99.90
30534;DHT22;17318;52.390;9.754;2023-04-01T12:40:31;15.90;99.90
30534;DHT22;17318;52.390;9.754;2023-04-01T12:43:45;15.90;99.90
30534;DHT22;17318;52.390;9.754;2023-04-01T12:49:25;15.90;99.90
30534;DHT22;17318;52.390;9.754;2023-04-01T12:54:59;15.80;98.90
30534;DHT22;17318;52.390;9.754;2023-04-01T13:06:25;15.90;99.20
30534;DHT22;17318;52.390;9.754;2023-04-01T13:17:01;15.90;98.90
30534;DHT22;17318;52.390;9.754;2023-04-01T13:28:17;15.70;99.50
30534;DHT22;17318;52.390;9.754;2023-04-01T13:30:55;15.40;98.60
30534;DHT22;17318;52.390;9.754;2023-04-01T13:42:14;15.50;99.20
30534;DHT22;17318;52.390;9.754;2023-04-01T13:44:56;15.50;99.40
30534;DHT22;17318;52.390;9.754;2023-04-01T13:47:53;15.40;99.50
30534;DHT22;17318;52.390;9.754;2023-04-01T13:50:42;15.40;99.90
30534;DHT22;17318;52.390;9.754;2023-04-01T13:56:06;14.80;99.90
30534;DHT22;17318;52.390;9.754;2023-04-01T13:58:44;14.70;99.90
30534;DHT22;17318;52.390;9.754;2023-04-01T14:06:34;14.40;99.90
30534;DHT22;17318;52.390;9.754;2023-04-01T14:12:26;13.90;99.90
30534;DHT22;17318;52.390;9.754;2023-04-01T14:26:00;13.20;99.90
30534;DHT22;17318;52.390;9.754;2023-04-01T14:31:38;13.10;99.90
30534;DHT22;17318;52.390;9.754;2023-04-01T14:37:12;12.80;99.90
30534;DHT22;17318;52.390;9.754;2023-04-01T14:40:16;12.80;99.90
30534;DHT22;17318;52.390;9.754;2023-04-01T14:46:13;12.80;99.90
30534;DHT22;17318;52.390;9.754;2023-04-01T14:48:53;12.70;99.90
30534;DHT22;17318;52.390;9.754;2023-04-01T14:51:32;12.70;99.90
30534;DHT22;17318;52.390;9.754;2023-04-01T14:56:46;12.60;99.90
30534;DHT22;17318;52.390;9.754;2023-04-01T15:02:03;12.40;99.90
30534;DHT22;17318;52.390;9.754;2023-04-01T15:18:49;12.20;99.90
30534;DHT22;17318;52.390;9.754;2023-04-01T15:24:06;12.10;99.90
30534;DHT22;17318;52.390;9.754;2023-04-01T15:32:23;11.80;99.90
30534;DHT22;17318;52.390;9.754;2023-04-01T15:37:59;11.80;99.90
30534;DHT22;17318;52.390;9.754;2023-04-01T15:40:40;11.90;99.90
30534;DHT22;17318;52.390;9.754;2023-04-01T16:00:53;11.30;99.90
30534;DHT22;17318;52.390;9.754;2023-04-01T16:03:38;11.30;99.90
30534;DHT22;17318;52.390;9.754;2023-04-01T16:06:14;11.30;99.90
30534;DHT22;17318;52.390;9.754;2023-04-01T16:11:41;11.00;99.90
30534;DHT22;17318;52.390;9.754;2023-04-01T16:17:14;11.20;99.90
30534;DHT22;17318;52.390;9.754;2023-04-01T16:23:10;11.20;99.90
30534;DHT22;17318;52.390;9.754;2023-04-01T16:25:52;11.20;99.90
30534;DHT22;17318;52.390;9.754;2023-04-01T16:28:31;11.00;99.90
30534;DHT22;17318;52.390;9.754;2023-04-01T16:31:35;10.90;99.90
30534;DHT22;17318;52.390;9.754;2023-04-01T16:34:40;10.80;99.90
30534;DHT22;17318;52.390;9.754;2023-04-01T16:37:21;10.70;99.90
30534;DHT22;17318;52.390;9.754;2023-04-01T16:42:56;10.80;99.90
30534;DHT22;17318;52.390;9.754;2023-04-01T16:48:07;10.70;99.90
30534;DHT22;17318;52.390;9.754;2023-04-01T16:50:43;10.70;99.90
30534;DHT22;17318;52.390;9.754;2023-04-01T16:59:06;10.60;99.90
30534;DHT22;17318;52.390;9.754;2023-04-01T17:01:52;10.60;99.90
30534;DHT22;17318;52.390;9.754;2023-04-01T17:04:36;10.60;99.90
30534;DHT22;17318;52.390;9.754;2023-04-01T17:09:54;10.60;99.90
30534;DHT22;17318;52.390;9.754;2023-04-01T17:15:20;10.40;99.90
30534;DHT22;17318;52.390;9.754;2023-04-01T17:31:32;10.30;99.90
30534;DHT22;17318;52.390;9.754;2023-04-01T17:42:40;10.00;99.90
30534;DHT22;17318;52.390;9.754;2023-04-01T17:45:16;9.80;99.90
30534;DHT22;17318;52.390;9.754;2023-04-01T17:50:53;9.80;99.90
30534;DHT22;17318;52.390;9.754;2023-04-01T17:53:52;9.70;99.90
30534;DHT22;17318;52.390;9.754;2023-04-01T17:56:34;9.70;99.90
30534;DHT22;17318;52.390;9.754;2023-04-01T17:59:05;9.60;99.90
30534;DHT22;17318;52.390;9.754;2023-04-01T18:04:31;9.60;99.90
30534;DHT22;17318;52.390;9.754;2023-04-01T18:18:54;9.40;99.90
30534;DHT22;17318;52.390;9.754;2023-04-01T18:24:05;9.20;99.90
30534;DHT22;17318;52.390;9.754;2023-04-01T18:26:38;9.30;99.90
30534;DHT22;17318;52.390;9.754;2023-04-01T19:13:11;8.80;99.90
30534;DHT22;17318;52.390;9.754;2023-04-01T19:35:59;8.70;99.90
30534;DHT22;17318;52.390;9.754;2023-04-01T19:38:39;8.60;99.90
30534;DHT22;17318;52.390;9.754;2023-04-01T19:41:32;8.60;99.90
30534;DHT22;17318;52.390;9.754;2023-04-01T19:46:41;8.60;99.90
30534;DHT22;17318;52.390;9.754;2023-04-01T19:49:20;8.60;99.90
30534;DHT22;17318;52.390;9.754;2023-04-01T19:57:17;8.40;99.90
30534;DHT22;17318;52.390;9.754;2023-04-01T20:00:07;8.30;99.90
30534;DHT22;17318;52.390;9.754;2023-04-01T20:03:00;8.30;99.90
30534;DHT22;17318;52.390;9.754;2023-04-01T20:05:48;8.10;99.90
30534;DHT22;17318;52.390;9.754;2023-04-01T20:11:06;8.10;99.90
30534;DHT22;17318;52.390;9.754;2023-04-01T20:16:15;8.00;99.90
30534;DHT22;17318;52.390;9.754;2023-04-01T20:18:59;8.00;99.90
30534;DHT22;17318;52.390;9.754;2023-04-01T20:21:41;7.90;99.90
30534;DHT22;17318;52.390;9.754;2023-04-01T20:26:42;8.00;99.90
30534;DHT22;17318;52.390;9.754;2023-04-01T20:35:20;7.90;99.90
30534;DHT22;17318;52.390;9.754;2023-04-01T20:38:11;7.80;99.90
30534;DHT22;17318;52.390;9.754;2023-04-01T20:40:47;7.80;99.90
30534;DHT22;17318;52.390;9.754;2023-04-01T20:43:25;7.90;99.90
30534;DHT22;17318;52.390;9.754;2023-04-01T20:51:39;7.80;99.90
30534;DHT22;17318;52.390;9.754;2023-04-01T21:02:25;7.70;99.90
30534;DHT22;17318;52.390;9.754;2023-04-01T21:07:55;7.50;99.90
30534;DHT22;17318;52.390;9.754;2023-04-01T21:21:23;7.40;99.90
30534;DHT22;17318;52.390;9.754;2023-04-01T21:31:59;7.40;99.90
30534;DHT22;17318;52.390;9.754;2023-04-01T21:51:59;7.40;99.90
30534;DHT22;17318;52.390;9.754;2023-04-01T21:54:59;7.40;99.90
30534;DHT22;17318;52.390;9.754;2023-04-01T21:57:57;7.40;99.90
30534;DHT22;17318;52.390;9.754;2023-04-01T22:00:42;7.40;99.90
30534;DHT22;17318;52.390;9.754;2023-04-01T22:06:29;7.30;99.90
30534;DHT22;17318;52.390;9.754;2023-04-01T22:09:21;7.30;99.90
30534;DHT22;17318;52.390;9.754;2023-04-01T22:17:21;7.20;99.90
30534;DHT22;17318;52.390;9.754;2023-04-01T22:22:58;7.10;99.90
30534;DHT22;17318;52.390;9.754;2023-04-01T22:28:24;7.00;99.90
30534;DHT22;17318;52.390;9.754;2023-04-01T22:31:00;6.90;99.90
30534;DHT22;17318;52.390;9.754;2023-04-01T22:33:45;6.90;99.90
30534;DHT22;17318;52.390;9.754;2023-04-01T22:36:23;6.90;99.90
30534;DHT22;17318;52.390;9.754;2023-04-01T22:41:57;6.80;99.90
30534;DHT22;17318;52.390;9.754;2023-04-01T22:50:40;7.00;99.90
30534;DHT22;17318;52.390;9.754;2023-04-01T22:53:52;6.90;99.90
30534;DHT22;17318;52.390;9.754;2023-04-01T22:56:23;6.80;99.90
30534;DHT22;17318;52.390;9.754;2023-04-01T22:59:08;6.90;99.90
30534;DHT22;17318;52.390;9.754;2023-04-01T23:01:42;6.90;99.90
30534;DHT22;17318;52.390;9.754;2023-04-01T23:04:09;7.00;99.90
30534;DHT22;17318;52.390;9.754;2023-04-01T23:06:43;7.00;99.90
30534;DHT22;17318;52.390;9.754;2023-04-01T23:09:19;7.00;99.90
30534;DHT22;17318;52.390;9.754;2023-04-01T23:11:58;7.00;99.90
30534;DHT22;17318;52.390;9.754;2023-04-01T23:14:35;6.90;99.90
30534;DHT22;17318;52.390;9.754;2023-04-01T23:22:35;6.70;99.90
30534;DHT22;17318;52.390;9.754;2023-04-01T23:28:14;6.60;99.90
30534;DHT22;17318;52.390;9.754;2023-04-01T23:36:12;6.70;99.90
30534;DHT22;17318;52.390;9.754;2023-04-01T23:38:41;6.60;99.90
30534;DHT22;17318;52.390;9.754;2023-04-01T23:41:20;6.60;99.90
30534;DHT22;17318;52.390;9.754;2023-04-01T23:44:09;6.70;99.90
30534;DHT22;17318;52.390;9.754;2023-04-01T23:46:37;6.60;99.90
30534;DHT22;17318;52.390;9.754;2023-04-01T23:49:08;6.50;99.90
30534;DHT22;17318;52.390;9.754;2023-04-01T23:51:46;6.50;99.90
30534;DHT22;17318;52.390;9.754;2023-04-01T23:54:19;6.60;99.90
30534;DHT22;17318;52.390;9.754;2023-04-01T23:56:53;6.50;99.90
30534;DHT22;17318;52.390;9.754;2023-04-01T23:59:31;6.60;99.90
